メインページ
METAR-TAF:

METAR-TAF

空港 :

北京, 中華人民共和国

北京首都国際空港

緯度: 39-56N, 経度: 116-17E, 海抜: 55m

現時点の気象観測

当レポートは33分前の23:00(UTC)に作成
の風 6kt
気温 18°C
湿度 88%
気圧 1010 hPa
視程: 6000m

METAR: ZBAA 232300Z 36003MPS 6000 NSC 18/16 Q1010 NOSIG

時間: 07:33 (23:33 UTC)

予報

当レポートは8時間13分前の15:20(UTC)に作成
予報は23日の 18時(UTC)から 24日の 18時(UTC)まで有効
東/南東の風 8kt
視程10km以上
1,500メートル以下は雲なし、積乱雲なし

TAF: ZBAA 231520Z 2318/2418 12004MPS CAVOK TX27/2407Z TN17/2321Z

4,000以上の空港の気象観測と天気予報(METAR報とTAF報)

利用可能な観測所は地図上に黄色い丸と赤い丸で示す。

丸の上にカーソルを重ねると観測所名を参照できる。

次にクリックすると気象観測と天気予報を参照できる。

マップの切り替え:黒色「×」印の緑ボタンをクリックして拡大、「-」印の緑ボタンをクリックして縮小、緑色の三角印をクリックして隣りの地図に切り替え


METAR-TAF: